Time;durP1;ratioP1;P1;durP2;ratioP2;P2;SDS_P1;SDS_P2;PMS_P1;PMS_P2;Temp;Humidity;BMP_temperature;BMP_pressure;BME280_temperature;BME280_humidity;BME280_pressure;Samples;Min_cycle;Max_cycle;Signal;HPM_P1;HPM_P2
2022/10/22 00:02:24;;;;;;;7.28;6.32;;;14.50;99.90;;;;;;5012320;28;20033;-54
2022/10/22 00:05:10;;;;;;;7.05;5.93;;;14.50;99.90;;;;;;5010939;28;20037;-53
2022/10/22 00:07:56;;;;;;;7.15;6.00;;;14.60;99.90;;;;;;5010898;28;20030;-57
2022/10/22 00:10:42;;;;;;;8.85;6.07;;;14.60;99.90;;;;;;5011621;28;20462;-57
2022/10/22 00:13:28;;;;;;;6.13;5.60;;;14.60;99.90;;;;;;5006954;28;20037;-56
2022/10/22 00:16:14;;;;;;;7.10;6.30;;;14.60;99.90;;;;;;5012423;28;20026;-54
2022/10/22 00:19:00;;;;;;;9.25;6.90;;;14.60;99.90;;;;;;5012291;28;20646;-52
2022/10/22 00:21:46;;;;;;;6.85;6.20;;;14.60;99.90;;;;;;5010294;28;20036;-55
2022/10/22 00:24:33;;;;;;;7.55;6.75;;;14.60;99.90;;;;;;5010669;28;20417;-57
2022/10/22 00:27:19;;;;;;;7.32;6.60;;;14.60;99.90;;;;;;5011752;28;20041;-56
2022/10/22 00:30:06;;;;;;;7.05;6.32;;;14.60;99.90;;;;;;5010163;28;20397;-57
2022/10/22 00:32:52;;;;;;;6.30;5.70;;;14.60;99.90;;;;;;5011230;28;20426;-52
2022/10/22 00:35:38;;;;;;;8.55;6.55;;;14.60;99.90;;;;;;5012682;28;20521;-56
2022/10/22 00:38:24;;;;;;;7.63;6.53;;;14.60;99.90;;;;;;5012749;28;20030;-55
2022/10/22 00:41:10;;;;;;;6.75;6.05;;;14.60;99.90;;;;;;5011423;28;20060;-50
2022/10/22 00:44:01;;;;;;;8.60;6.63;;;14.60;99.90;;;;;;5011953;28;20053;-53
2022/10/22 00:46:47;;;;;;;7.55;6.13;;;14.60;99.90;;;;;;5009483;28;20527;-54
2022/10/22 00:49:33;;;;;;;7.93;7.15;;;14.60;99.90;;;;;;5011504;28;20026;-52
2022/10/22 00:52:20;;;;;;;7.55;6.85;;;14.60;99.90;;;;;;5011721;28;20089;-53
2022/10/22 00:55:07;;;;;;;7.90;7.10;;;14.60;99.90;;;;;;5011774;28;20038;-53
2022/10/22 00:57:55;;;;;;;9.63;6.72;;;14.60;99.90;;;;;;5011012;28;20398;-55
2022/10/22 01:00:41;;;;;;;8.48;7.10;;;14.60;99.90;;;;;;5011287;28;20042;-55
2022/10/22 01:03:27;;;;;;;8.02;6.30;;;14.60;99.90;;;;;;5010437;28;20109;-55
2022/10/22 01:06:23;;;;;;;9.20;6.82;;;14.70;99.90;;;;;;5012327;28;20513;-58
2022/10/22 01:09:20;;;;;;;9.55;6.85;;;14.70;99.90;;;;;;5028132;28;20034;-53
2022/10/22 01:12:44;;;;;;;7.55;6.85;;;14.60;99.90;;;;;;5030500;28;20703;-53
2022/10/22 01:15:47;;;;;;;7.88;6.05;;;14.60;99.90;;;;;;4998512;28;20027;-57
2022/10/22 01:18:42;;;;;;;10.88;6.88;;;14.60;99.90;;;;;;5002756;28;20025;-55
2022/10/22 01:21:42;;;;;;;7.60;6.82;;;14.60;99.90;;;;;;5004807;28;20018;-53
2022/10/22 01:24:56;;;;;;;8.50;6.63;;;14.60;99.90;;;;;;5012363;28;20029;-51
2022/10/22 01:27:54;;;;;;;7.55;6.78;;;14.60;99.90;;;;;;5010364;28;20048;-55
2022/10/22 01:30:42;;;;;;;7.70;6.18;;;14.60;99.90;;;;;;5005781;28;20036;-51
2022/10/22 01:33:30;;;;;;;8.05;6.78;;;14.60;99.90;;;;;;5010845;28;20490;-51
2022/10/22 01:36:17;;;;;;;7.72;7.03;;;14.60;99.90;;;;;;5010832;28;20038;-55
2022/10/22 01:39:05;;;;;;;9.68;7.95;;;14.60;99.90;;;;;;5009358;28;20414;-57
2022/10/22 01:41:54;;;;;;;10.25;7.93;;;14.60;99.90;;;;;;5010626;28;20301;-56
2022/10/22 01:44:40;;;;;;;8.07;7.25;;;14.60;99.90;;;;;;5010418;28;20490;-54
2022/10/22 01:47:56;;;;;;;8.30;7.38;;;14.60;99.90;;;;;;5013203;28;20541;-51
2022/10/22 01:50:44;;;;;;;8.57;7.72;;;14.50;99.90;;;;;;5017003;28;20046;-55
2022/10/22 01:53:44;;;;;;;9.25;8.23;;;14.60;99.90;;;;;;5016368;28;20405;-57
2022/10/22 01:57:01;;;;;;;9.50;7.93;;;14.60;99.90;;;;;;5010914;28;20446;-55
2022/10/22 02:00:09;;;;;;;9.68;7.90;;;14.60;99.90;;;;;;4999015;28;20021;-55
2022/10/22 02:03:00;;;;;;;9.60;8.27;;;14.50;99.90;;;;;;5009931;28;20029;-54
2022/10/22 02:05:52;;;;;;;9.45;8.55;;;14.50;99.90;;;;;;4998712;28;20030;-57
2022/10/22 02:08:38;;;;;;;9.43;8.35;;;14.50;99.90;;;;;;5010169;28;20490;-52
2022/10/22 02:11:24;;;;;;;11.18;9.75;;;14.50;99.90;;;;;;5011485;28;20034;-56
2022/10/22 02:14:12;;;;;;;8.35;7.30;;;14.50;99.90;;;;;;5010264;28;20045;-49
2022/10/22 02:16:59;;;;;;;9.10;8.13;;;14.60;99.90;;;;;;5010739;28;20026;-55
2022/10/22 02:19:57;;;;;;;9.95;8.40;;;14.50;99.90;;;;;;5010329;28;20553;-53
2022/10/22 02:22:44;;;;;;;10.85;7.63;;;14.50;99.90;;;;;;5008755;28;20026;-55
2022/10/22 02:25:34;;;;;;;9.75;7.97;;;14.50;99.90;;;;;;4991068;28;20066;-55
2022/10/22 02:28:30;;;;;;;10.23;9.10;;;14.50;99.90;;;;;;4993746;28;20538;-57
2022/10/22 02:31:21;;;;;;;11.65;10.23;;;14.50;99.90;;;;;;5010430;28;20072;-55
2022/10/22 02:34:13;;;;;;;15.15;10.65;;;14.50;99.90;;;;;;5004671;28;20030;-54
2022/10/22 02:37:01;;;;;;;10.65;9.55;;;14.50;99.90;;;;;;4991980;28;20077;-51
2022/10/22 02:39:48;;;;;;;9.65;8.20;;;14.50;99.90;;;;;;5011808;28;20041;-55
2022/10/22 02:42:36;;;;;;;9.90;8.75;;;14.50;99.90;;;;;;5012899;28;20029;-54
2022/10/22 02:45:24;;;;;;;11.10;7.85;;;14.50;99.90;;;;;;5013462;28;20026;-57
2022/10/22 02:48:10;;;;;;;8.15;7.35;;;14.50;99.90;;;;;;4998893;28;20088;-57
2022/10/22 02:50:55;;;;;;;8.88;7.47;;;14.50;99.90;;;;;;4990936;28;20066;-53
2022/10/22 02:53:41;;;;;;;8.65;7.78;;;14.50;99.90;;;;;;5009535;28;20096;-56
2022/10/22 02:56:27;;;;;;;9.75;7.82;;;14.50;99.90;;;;;;5009770;28;20089;-55
2022/10/22 02:59:13;;;;;;;9.57;8.25;;;14.50;99.90;;;;;;5008978;28;20038;-54
2022/10/22 03:01:59;;;;;;;10.13;8.27;;;14.50;99.90;;;;;;5011352;28;20375;-55
2022/10/22 03:04:45;;;;;;;9.50;8.60;;;14.50;99.90;;;;;;5010318;28;20561;-54
2022/10/22 03:07:31;;;;;;;9.63;7.40;;;14.50;99.90;;;;;;5009509;28;20498;-50
2022/10/22 03:10:17;;;;;;;14.50;12.20;;;14.50;99.90;;;;;;4992392;28;20038;-51
2022/10/22 03:13:03;;;;;;;13.73;11.95;;;14.50;99.90;;;;;;5000840;28;20042;-54
2022/10/22 03:15:50;;;;;;;9.82;8.88;;;14.50;99.90;;;;;;5023948;28;20034;-55
2022/10/22 03:18:35;;;;;;;9.68;7.70;;;14.50;99.90;;;;;;5017978;28;20029;-52
2022/10/22 03:21:33;;;;;;;8.35;7.55;;;14.50;99.90;;;;;;4998396;28;20068;-51
2022/10/22 03:24:33;;;;;;;8.55;7.45;;;14.60;99.90;;;;;;4995146;28;20499;-56
2022/10/22 03:27:21;;;;;;;8.93;8.13;;;14.50;99.90;;;;;;4998951;28;20042;-53
2022/10/22 03:30:08;;;;;;;10.18;7.15;;;14.40;99.90;;;;;;5012550;28;20398;-53
2022/10/22 03:32:54;;;;;;;9.60;7.57;;;14.50;99.90;;;;;;5009665;28;20114;-53
2022/10/22 03:35:44;;;;;;;11.27;7.95;;;14.50;99.90;;;;;;5012795;28;20482;-55
2022/10/22 03:38:31;;;;;;;9.95;8.95;;;14.50;99.90;;;;;;4998359;28;20027;-53
2022/10/22 03:41:17;;;;;;;13.73;12.25;;;14.40;99.90;;;;;;4978825;28;20065;-51
2022/10/22 03:44:04;;;;;;;9.48;8.52;;;14.40;99.90;;;;;;5012331;28;20034;-49
2022/10/22 03:46:49;;;;;;;8.80;7.70;;;14.50;99.90;;;;;;5011416;28;20034;-54
2022/10/22 03:49:35;;;;;;;9.68;8.32;;;14.50;99.90;;;;;;5013517;28;20097;-53
2022/10/22 03:52:21;;;;;;;10.35;7.50;;;14.40;99.90;;;;;;5012483;28;20034;-52
2022/10/22 03:55:08;;;;;;;8.43;7.65;;;14.40;99.90;;;;;;5012981;28;20022;-52
2022/10/22 03:57:54;;;;;;;10.35;8.50;;;14.40;99.90;;;;;;5012510;28;20097;-52
2022/10/22 04:00:40;;;;;;;9.90;8.77;;;14.40;99.90;;;;;;5012702;28;20028;-52
2022/10/22 04:03:26;;;;;;;8.98;7.97;;;14.30;99.90;;;;;;5011903;28;20030;-57
2022/10/22 04:06:12;;;;;;;12.43;8.43;;;14.20;99.90;;;;;;5013309;28;20030;-51
2022/10/22 04:08:59;;;;;;;9.88;8.38;;;14.20;99.90;;;;;;5013152;28;20056;-51
2022/10/22 04:11:45;;;;;;;11.15;8.95;;;14.20;99.90;;;;;;5015509;28;20046;-53
2022/10/22 04:14:31;;;;;;;10.32;8.80;;;14.20;99.90;;;;;;5015184;28;20022;-56
2022/10/22 04:17:17;;;;;;;10.05;9.05;;;14.20;99.90;;;;;;5018010;28;20045;-56
2022/10/22 04:20:04;;;;;;;9.60;8.60;;;14.30;99.90;;;;;;5012939;28;20026;-56
2022/10/22 04:22:50;;;;;;;10.02;8.70;;;14.30;99.90;;;;;;5012120;28;20435;-58
2022/10/22 04:25:36;;;;;;;10.88;8.75;;;14.30;99.90;;;;;;4998738;28;20089;-52
2022/10/22 04:28:22;;;;;;;9.57;8.55;;;14.30;99.90;;;;;;5011121;28;20413;-53
2022/10/22 04:31:14;;;;;;;11.68;9.85;;;14.40;99.90;;;;;;5011807;28;20033;-53
2022/10/22 04:34:00;;;;;;;10.30;9.20;;;14.40;99.90;;;;;;5006446;28;20512;-50
2022/10/22 04:36:46;;;;;;;10.38;9.38;;;14.40;99.90;;;;;;5012599;28;20022;-53
2022/10/22 04:39:32;;;;;;;10.25;8.57;;;14.50;99.90;;;;;;5002489;28;20033;-51
2022/10/22 04:42:18;;;;;;;9.50;8.52;;;14.50;99.90;;;;;;5009799;28;20034;-52
2022/10/22 04:45:04;;;;;;;9.48;7.85;;;14.50;99.90;;;;;;5011564;28;20112;-54
2022/10/22 04:47:50;;;;;;;8.55;7.65;;;14.50;99.90;;;;;;5011611;28;20092;-57
2022/10/22 04:50:36;;;;;;;9.40;8.45;;;14.50;99.90;;;;;;5011819;28;20022;-56
2022/10/22 04:53:22;;;;;;;10.27;8.60;;;14.50;99.90;;;;;;5008593;28;20092;-53
2022/10/22 04:56:10;;;;;;;10.23;8.60;;;14.50;99.90;;;;;;5009652;28;20049;-54
2022/10/22 04:58:58;;;;;;;9.88;8.50;;;14.40;99.90;;;;;;5012568;28;20109;-56
2022/10/22 05:01:44;;;;;;;12.40;9.52;;;14.40;99.90;;;;;;5007304;28;20034;-52
2022/10/22 05:04:30;;;;;;;14.27;10.23;;;14.40;99.90;;;;;;5010969;28;20080;-54
2022/10/22 05:07:16;;;;;;;11.73;10.27;;;14.40;99.90;;;;;;5011148;28;20034;-49
2022/10/22 05:10:03;;;;;;;13.13;10.48;;;14.30;99.90;;;;;;5011315;28;20391;-53
2022/10/22 05:12:51;;;;;;;12.52;11.25;;;14.30;99.90;;;;;;5011540;28;20045;-53
2022/10/22 05:15:37;;;;;;;11.55;10.38;;;14.30;99.90;;;;;;4997457;28;20530;-49
2022/10/22 05:18:23;;;;;;;13.57;10.95;;;14.30;99.90;;;;;;5006523;28;20030;-54
2022/10/22 05:21:17;;;;;;;12.82;11.45;;;14.40;99.90;;;;;;4983510;28;20022;-55
2022/10/22 05:24:04;;;;;;;11.60;10.23;;;14.30;99.90;;;;;;5011100;28;20034;-56
2022/10/22 05:26:54;;;;;;;14.02;11.65;;;14.30;99.90;;;;;;5007082;28;20129;-56
2022/10/22 05:29:40;;;;;;;15.63;12.10;;;14.10;99.90;;;;;;5012098;28;20498;-54
2022/10/22 05:32:26;;;;;;;14.63;11.40;;;14.00;99.90;;;;;;5009020;28;20042;-57
2022/10/22 05:35:12;;;;;;;14.40;11.80;;;14.10;99.90;;;;;;5009272;28;20396;-56
2022/10/22 05:37:58;;;;;;;14.98;12.45;;;14.10;99.90;;;;;;5002690;28;20037;-52
2022/10/22 05:40:44;;;;;;;11.10;10.00;;;14.20;99.90;;;;;;5003339;28;20139;-55
2022/10/22 05:43:30;;;;;;;15.02;10.70;;;14.20;99.90;;;;;;5010411;28;20121;-52
2022/10/22 05:46:19;;;;;;;12.93;11.63;;;14.30;99.90;;;;;;4999871;28;20193;-55
2022/10/22 05:49:06;;;;;;;13.30;11.95;;;14.30;99.90;;;;;;4994200;28;20078;-53
2022/10/22 05:51:52;;;;;;;15.52;13.30;;;14.30;99.90;;;;;;5010915;28;20038;-53
2022/10/22 05:54:38;;;;;;;16.05;13.43;;;14.40;99.90;;;;;;5012481;28;20093;-55
2022/10/22 05:57:24;;;;;;;18.83;14.10;;;14.40;99.90;;;;;;4991436;28;20026;-56
2022/10/22 06:00:11;;;;;;;18.27;14.45;;;14.30;99.90;;;;;;4994819;28;20026;-51
2022/10/22 06:02:57;;;;;;;17.02;14.10;;;14.30;99.90;;;;;;5013460;28;20042;-52
2022/10/22 06:05:43;;;;;;;19.20;15.80;;;14.40;99.90;;;;;;4998991;28;20049;-57
2022/10/22 06:08:29;;;;;;;20.13;15.98;;;14.30;99.90;;;;;;5012560;28;20430;-56
2022/10/22 06:11:16;;;;;;;17.20;15.35;;;14.40;99.90;;;;;;4992060;28;20383;-55
2022/10/22 06:14:03;;;;;;;17.13;15.05;;;14.40;99.90;;;;;;5012428;28;20041;-53
2022/10/22 06:16:49;;;;;;;17.77;15.73;;;14.40;99.90;;;;;;5009289;28;20025;-58
2022/10/22 06:19:35;;;;;;;20.58;15.30;;;14.40;99.90;;;;;;5011503;28;20093;-58
2022/10/22 06:22:21;;;;;;;17.52;15.73;;;14.30;99.90;;;;;;5010667;28;20029;-56
2022/10/22 06:25:07;;;;;;;18.25;16.13;;;14.40;99.90;;;;;;4997118;28;20038;-55
2022/10/22 06:27:53;;;;;;;17.35;15.55;;;14.30;99.90;;;;;;5014102;28;20030;-55
2022/10/22 06:30:39;;;;;;;21.70;16.95;;;14.40;99.90;;;;;;5011787;28;20109;-57
2022/10/22 06:33:26;;;;;;;18.33;16.23;;;14.40;99.90;;;;;;5011711;28;20030;-56
2022/10/22 06:36:23;;;;;;;20.13;17.23;;;14.40;99.90;;;;;;5011853;28;20109;-53
2022/10/22 06:39:14;;;;;;;19.98;17.15;;;14.50;99.90;;;;;;5011995;28;20030;-58
2022/10/22 06:41:59;;;;;;;18.35;16.05;;;14.40;99.90;;;;;;5010651;28;20034;-54
2022/10/22 06:44:45;;;;;;;20.55;17.02;;;14.40;99.90;;;;;;5010510;28;20137;-53
2022/10/22 06:47:32;;;;;;;17.67;15.98;;;14.40;99.90;;;;;;5014057;28;20038;-52
2022/10/22 06:50:18;;;;;;;19.80;16.58;;;14.50;99.90;;;;;;5014457;28;20034;-52
2022/10/22 06:53:04;;;;;;;20.55;18.45;;;14.40;99.90;;;;;;5007005;28;20040;-53
2022/10/22 06:55:50;;;;;;;19.60;16.30;;;14.60;99.90;;;;;;4985806;28;20022;-53
2022/10/22 06:58:36;;;;;;;20.77;16.92;;;14.70;99.90;;;;;;4984574;28;20018;-50
2022/10/22 07:01:26;;;;;;;18.58;16.67;;;14.70;99.90;;;;;;5013381;28;20408;-52
2022/10/22 07:04:12;;;;;;;19.92;16.85;;;14.80;99.90;;;;;;5013849;28;20034;-52
2022/10/22 07:06:58;;;;;;;16.45;14.73;;;14.80;99.90;;;;;;5013538;28;20038;-52
2022/10/22 07:09:46;;;;;;;25.63;17.25;;;14.90;99.90;;;;;;5009854;28;20494;-49
2022/10/22 07:12:33;;;;;;;20.88;15.95;;;14.90;99.90;;;;;;5015867;28;20521;-56
2022/10/22 07:15:18;;;;;;;21.33;16.67;;;14.90;99.90;;;;;;5016490;28;20038;-52
2022/10/22 07:18:04;;;;;;;23.33;17.58;;;15.00;99.90;;;;;;5018170;28;20033;-56
2022/10/22 07:20:50;;;;;;;20.52;16.27;;;15.00;99.90;;;;;;5016663;28;20070;-56
2022/10/22 07:23:37;;;;;;;21.90;17.10;;;15.00;99.90;;;;;;5014431;28;20030;-55
2022/10/22 07:26:29;;;;;;;22.52;16.52;;;15.00;99.90;;;;;;5013823;28;20084;-56
2022/10/22 07:29:15;;;;;;;20.73;16.33;;;15.00;99.90;;;;;;5013597;28;20034;-56
2022/10/22 07:32:01;;;;;;;20.20;16.25;;;14.90;99.90;;;;;;5017118;28;20105;-52
2022/10/22 07:34:47;;;;;;;21.20;16.17;;;14.90;99.90;;;;;;5017915;28;20061;-55
2022/10/22 07:37:33;;;;;;;20.70;15.73;;;15.00;99.90;;;;;;5011906;28;20038;-56
2022/10/22 07:40:19;;;;;;;17.85;15.38;;;15.10;99.90;;;;;;5014760;28;20038;-53
2022/10/22 07:43:05;;;;;;;23.42;16.52;;;15.10;99.90;;;;;;5001770;28;20030;-56
2022/10/22 07:45:54;;;;;;;19.42;16.48;;;15.10;99.90;;;;;;5023465;28;20537;-57
2022/10/22 07:48:40;;;;;;;18.73;16.13;;;15.10;99.90;;;;;;5033124;28;20030;-55
2022/10/22 07:51:26;;;;;;;18.45;15.73;;;15.20;99.90;;;;;;5014495;28;20041;-57
2022/10/22 07:54:12;;;;;;;23.63;16.23;;;15.20;99.90;;;;;;5013766;28;20096;-54
2022/10/22 07:56:58;;;;;;;17.90;15.20;;;15.20;99.90;;;;;;5012719;28;20065;-56
2022/10/22 07:59:45;;;;;;;19.70;15.07;;;15.20;99.90;;;;;;4994931;28;20036;-55
2022/10/22 08:02:31;;;;;;;18.77;16.23;;;15.30;99.90;;;;;;5004754;28;20056;-56
2022/10/22 08:05:17;;;;;;;16.80;15.05;;;15.30;99.90;;;;;;5013000;28;20022;-53
2022/10/22 08:08:03;;;;;;;20.55;15.50;;;15.40;99.90;;;;;;5012480;28;20108;-55
2022/10/22 08:10:51;;;;;;;17.67;15.23;;;15.40;99.90;;;;;;5013233;28;20026;-53
2022/10/22 08:13:38;;;;;;;24.95;17.08;;;15.40;99.90;;;;;;5012449;28;20034;-52
2022/10/22 08:16:24;;;;;;;17.25;15.07;;;15.50;99.90;;;;;;5013937;28;20033;-57
2022/10/22 08:19:09;;;;;;;19.98;14.63;;;15.40;99.90;;;;;;4998481;28;20034;-54
2022/10/22 08:21:55;;;;;;;18.73;14.68;;;15.50;99.90;;;;;;5012298;28;20029;-53
2022/10/22 08:24:41;;;;;;;21.30;15.35;;;15.50;99.90;;;;;;5012181;28;20064;-55
2022/10/22 08:27:27;;;;;;;15.65;14.07;;;15.50;99.90;;;;;;5012819;28;20030;-57
2022/10/22 08:30:14;;;;;;;20.58;14.20;;;15.60;99.90;;;;;;5012730;28;20040;-58
2022/10/22 08:32:59;;;;;;;18.35;14.15;;;15.50;99.90;;;;;;5009184;28;20102;-55
2022/10/22 08:35:50;;;;;;;16.25;13.57;;;15.60;99.90;;;;;;4995420;28;20041;-55
2022/10/22 08:38:36;;;;;;;15.80;12.88;;;15.60;99.90;;;;;;5008667;28;20105;-54
2022/10/22 08:41:23;;;;;;;16.60;12.63;;;15.70;99.90;;;;;;5010346;28;20044;-57
2022/10/22 08:44:18;;;;;;;16.70;12.43;;;15.80;99.90;;;;;;5011051;28;20038;-55
2022/10/22 08:47:16;;;;;;;14.70;12.15;;;15.70;99.90;;;;;;5008587;28;20025;-52
2022/10/22 08:50:03;;;;;;;13.48;11.23;;;15.70;99.90;;;;;;5011147;28;20030;-52
2022/10/22 08:52:53;;;;;;;17.38;10.77;;;15.70;99.90;;;;;;5009658;28;20088;-55
2022/10/22 08:55:40;;;;;;;12.10;9.48;;;15.70;99.90;;;;;;5013508;28;20041;-52
2022/10/22 08:58:46;;;;;;;14.82;9.32;;;15.80;99.90;;;;;;4995838;28;20030;-52
2022/10/22 09:01:36;;;;;;;10.25;8.15;;;15.80;99.90;;;;;;5003661;28;20414;-54
2022/10/22 09:04:40;;;;;;;9.32;7.97;;;15.90;99.90;;;;;;5010787;28;20026;-54
2022/10/22 09:07:26;;;;;;;13.80;8.27;;;15.90;99.90;;;;;;5009290;28;20034;-53
2022/10/22 09:10:12;;;;;;;9.15;7.05;;;15.90;99.90;;;;;;4995244;28;20040;-55
2022/10/22 09:12:58;;;;;;;11.00;7.20;;;15.90;99.90;;;;;;5007085;28;20454;-55
2022/10/22 09:15:55;;;;;;;9.80;6.93;;;16.00;99.90;;;;;;5009246;28;20058;-55
2022/10/22 09:18:55;;;;;;;7.85;6.13;;;16.00;99.90;;;;;;5010058;28;20467;-51
2022/10/22 09:22:01;;;;;;;8.35;6.05;;;16.10;99.90;;;;;;4997028;28;20491;-57
2022/10/22 09:25:08;;;;;;;8.25;5.00;;;16.30;99.90;;;;;;5010899;28;20029;-53
2022/10/22 09:27:57;;;;;;;8.93;5.35;;;16.50;99.90;;;;;;5011443;28;20037;-55
2022/10/22 09:30:44;;;;;;;5.97;5.22;;;16.80;99.90;;;;;;5008736;28;20402;-54
2022/10/22 09:33:31;;;;;;;8.80;4.43;;;16.70;99.90;;;;;;5007780;28;20069;-50
2022/10/22 09:36:21;;;;;;;7.60;3.85;;;16.70;99.90;;;;;;4997417;28;20022;-53
2022/10/22 09:39:23;;;;;;;6.38;4.00;;;16.50;99.90;;;;;;5010521;28;20036;-56
2022/10/22 09:42:13;;;;;;;5.75;3.92;;;16.60;99.90;;;;;;5005894;28;20133;-50
2022/10/22 09:44:59;;;;;;;4.57;3.78;;;16.70;99.90;;;;;;5011184;28;20030;-59
2022/10/22 09:47:45;;;;;;;7.55;3.80;;;16.70;99.90;;;;;;5009201;28;20068;-54
2022/10/22 09:50:43;;;;;;;6.18;4.13;;;16.70;99.90;;;;;;4996742;28;20026;-55
2022/10/22 09:53:34;;;;;;;7.95;4.15;;;16.80;99.90;;;;;;5010496;28;20030;-51
2022/10/22 09:56:39;;;;;;;8.27;4.30;;;16.90;99.90;;;;;;5015182;28;20030;-57
2022/10/22 09:59:29;;;;;;;;;;;17.10;99.90;;;;;;5010201;28;20052;-54
2022/10/22 10:02:22;;;;;;;4.32;3.80;;;17.10;99.90;;;;;;5016195;28;19905;-59
2022/10/22 10:05:18;;;;;;;5.38;3.60;;;17.30;99.90;;;;;;5005537;28;20037;-56
2022/10/22 10:08:23;;;;;;;7.18;4.18;;;17.40;99.90;;;;;;5007496;28;20029;-57
2022/10/22 10:11:23;;;;;;;11.02;4.65;;;17.40;99.90;;;;;;5010866;28;20040;-52
2022/10/22 10:14:20;;;;;;;4.80;3.70;;;17.50;99.90;;;;;;5010807;28;20029;-55
2022/10/22 10:17:32;;;;;;;5.60;4.00;;;17.40;99.90;;;;;;5010077;28;20033;-60
2022/10/22 10:20:27;;;;;;;10.27;4.60;;;17.50;99.90;;;;;;5009356;28;20601;-58
2022/10/22 10:23:35;;;;;;;5.75;4.38;;;17.60;99.90;;;;;;5013935;28;20397;-56
2022/10/22 10:26:49;;;;;;;10.73;4.95;;;17.70;99.90;;;;;;5011647;28;20022;-55
2022/10/22 10:29:42;;;;;;;6.05;4.32;;;17.70;99.90;;;;;;5015710;28;20061;-56
2022/10/22 10:32:53;;;;;;;5.63;3.83;;;17.60;99.90;;;;;;5011428;28;20036;-54
2022/10/22 10:35:55;;;;;;;7.00;4.00;;;17.60;99.90;;;;;;5020570;28;20395;-55
2022/10/22 10:38:53;;;;;;;6.72;4.60;;;17.80;99.90;;;;;;4999551;28;20394;-58
2022/10/22 10:41:50;;;;;;;8.15;3.88;;;17.70;99.90;;;;;;5014626;28;20026;-55
2022/10/22 10:44:57;;;;;;;4.88;3.70;;;17.70;99.90;;;;;;5014392;28;20371;-54
2022/10/22 10:47:52;;;;;;;7.43;3.30;;;17.50;99.90;;;;;;5012967;28;20029;-58
2022/10/22 10:50:50;;;;;;;;;;;17.30;99.90;;;;;;5016474;28;20033;-56
2022/10/22 10:53:59;;;;;;;5.70;3.30;;;17.30;99.90;;;;;;4999429;28;19995;-54
2022/10/22 10:56:55;;;;;;;6.82;3.00;;;17.50;99.90;;;;;;5013632;28;20075;-54
2022/10/22 10:59:48;;;;;;;6.43;3.42;;;17.70;99.90;;;;;;5013762;28;20014;-56
2022/10/22 11:02:59;;;;;;;5.65;3.67;;;18.00;99.90;;;;;;5010016;28;20036;-55
2022/10/22 11:05:58;;;;;;;4.30;3.08;;;18.00;99.90;;;;;;5013534;28;20461;-60
2022/10/22 11:08:53;;;;;;;3.03;2.72;;;18.10;99.90;;;;;;5014251;28;20030;-60
2022/10/22 11:12:14;;;;;;;8.45;6.25;;;18.20;99.90;;;;;;5013696;28;20036;-56
2022/10/22 11:15:19;;;;;;;4.50;3.03;;;18.10;99.90;;;;;;5019040;28;20049;-59
2022/10/22 11:18:11;;;;;;;4.07;3.10;;;18.20;99.90;;;;;;5018959;28;20060;-52
2022/10/22 11:21:16;;;;;;;6.15;3.17;;;18.20;99.90;;;;;;4997592;28;20025;-58
2022/10/22 11:24:24;;;;;;;5.90;3.33;;;18.20;99.90;;;;;;5016748;28;20555;-54
2022/10/22 11:27:28;;;;;;;6.25;3.28;;;18.30;99.90;;;;;;5017363;28;20093;-57
2022/10/22 11:30:21;;;;;;;4.65;2.92;;;18.30;99.90;;;;;;5018879;28;20503;-52
2022/10/22 11:33:14;;;;;;;6.32;2.90;;;18.30;99.90;;;;;;5018736;28;20040;-57
2022/10/22 11:36:04;;;;;;;3.95;2.53;;;18.10;99.90;;;;;;5003761;28;20032;-50
2022/10/22 11:38:50;;;;;;;6.25;3.00;;;18.10;99.90;;;;;;5012127;28;20026;-57
2022/10/22 11:41:36;;;;;;;6.40;3.17;;;17.90;99.90;;;;;;5009962;28;20026;-56
2022/10/22 11:44:24;;;;;;;7.70;3.40;;;17.90;99.90;;;;;;5009275;28;20061;-56
2022/10/22 11:47:24;;;;;;;7.35;3.15;;;17.90;99.90;;;;;;5014773;28;20034;-58
2022/10/22 11:50:20;;;;;;;3.78;3.00;;;17.90;99.90;;;;;;5012195;28;20116;-56
2022/10/22 11:53:12;;;;;;;4.65;3.10;;;18.00;99.90;;;;;;5012322;28;20022;-59
2022/10/22 11:56:05;;;;;;;3.17;2.70;;;18.00;99.90;;;;;;4998076;28;20033;-57
2022/10/22 11:58:53;;;;;;;4.18;3.00;;;18.00;99.90;;;;;;5010547;28;20105;-55
2022/10/22 12:01:41;;;;;;;11.50;3.78;;;18.00;99.90;;;;;;4996841;28;20108;-57
2022/10/22 12:04:40;;;;;;;4.35;3.10;;;17.90;99.90;;;;;;5011251;28;20082;-56
2022/10/22 12:07:55;;;;;;;5.80;2.80;;;18.00;99.90;;;;;;5008382;28;20559;-58
2022/10/22 12:11:05;;;;;;;4.18;2.83;;;17.90;99.90;;;;;;4995479;28;20438;-58
2022/10/22 12:14:00;;;;;;;3.72;3.00;;;17.90;99.90;;;;;;4996625;28;20558;-59
2022/10/22 12:17:06;;;;;;;5.82;3.50;;;17.90;99.90;;;;;;5012033;28;20029;-57
2022/10/22 12:20:09;;;;;;;5.90;3.15;;;17.90;99.90;;;;;;4999634;28;20111;-50
2022/10/22 12:22:58;;;;;;;5.20;3.00;;;17.90;99.90;;;;;;5012465;28;20450;-54
2022/10/22 12:25:44;;;;;;;5.55;3.20;;;17.90;99.90;;;;;;5012469;28;20034;-55
2022/10/22 12:28:40;;;;;;;4.97;3.10;;;18.00;99.90;;;;;;4999261;28;20410;-55
2022/10/22 12:31:26;;;;;;;4.88;3.10;;;18.00;99.90;;;;;;5009450;28;20034;-59
2022/10/22 12:34:14;;;;;;;4.50;2.88;;;18.20;99.90;;;;;;5010100;28;20068;-54
2022/10/22 12:37:03;;;;;;;4.05;3.28;;;18.20;99.90;;;;;;4995060;28;20025;-59
2022/10/22 12:39:50;;;;;;;4.65;3.28;;;18.20;99.90;;;;;;5009793;28;20022;-56
2022/10/22 12:42:37;;;;;;;4.82;3.17;;;18.20;99.90;;;;;;5011021;28;20036;-58
2022/10/22 12:45:27;;;;;;;6.43;3.15;;;18.10;99.90;;;;;;5010743;28;20037;-56
2022/10/22 12:48:23;;;;;;;5.53;3.10;;;18.00;99.90;;;;;;5009120;28;20838;-59
2022/10/22 12:51:18;;;;;;;7.63;3.55;;;18.10;99.90;;;;;;5010452;28;20068;-54
2022/10/22 12:54:09;;;;;;;6.03;3.42;;;18.10;99.90;;;;;;5010547;28;20030;-61
2022/10/22 12:56:57;;;;;;;7.15;3.50;;;18.20;99.90;;;;;;5010724;28;20028;-57
2022/10/22 12:59:47;;;;;;;4.63;3.28;;;18.10;99.90;;;;;;4996740;28;20498;-64
2022/10/22 13:02:33;;;;;;;3.78;3.22;;;18.10;99.90;;;;;;5008658;28;20041;-62
2022/10/22 13:05:19;;;;;;;5.53;3.20;;;18.20;99.90;;;;;;4996866;28;20033;-55
2022/10/22 13:08:09;;;;;;;5.60;3.50;;;18.50;99.90;;;;;;5007265;28;20026;-54
2022/10/22 13:10:55;;;;;;;7.03;3.50;;;18.90;99.90;;;;;;5004763;28;20033;-59
2022/10/22 13:13:44;;;;;;;6.07;3.55;;;19.30;99.90;;;;;;5009230;28;20510;-60
2022/10/22 13:16:31;;;;;;;8.35;3.75;;;19.40;99.90;;;;;;4993750;28;20022;-53
2022/10/22 13:19:37;;;;;;;4.88;3.40;;;19.50;99.90;;;;;;5010226;28;20038;-57
2022/10/22 13:22:32;;;;;;;5.28;3.55;;;19.60;99.90;;;;;;5004875;28;20034;-58
2022/10/22 13:25:25;;;;;;;4.88;3.40;;;19.70;99.60;;;;;;5012834;28;20040;-57
2022/10/22 13:28:17;;;;;;;8.30;4.00;;;19.80;99.00;;;;;;5006984;28;20033;-54
2022/10/22 13:31:18;;;;;;;8.15;3.30;;;20.00;99.10;;;;;;5005479;28;20030;-52
2022/10/22 13:34:08;;;;;;;8.93;3.92;;;20.00;99.10;;;;;;5003623;28;20033;-58
2022/10/22 13:36:54;;;;;;;6.68;3.35;;;20.00;99.30;;;;;;5008094;28;20022;-56
2022/10/22 13:39:40;;;;;;;9.57;3.70;;;20.30;99.10;;;;;;4995971;28;20497;-54
2022/10/22 13:42:26;;;;;;;6.78;3.33;;;20.40;98.70;;;;;;5009950;28;20375;-56
2022/10/22 13:45:13;;;;;;;7.57;4.43;;;20.60;98.50;;;;;;5008596;28;20145;-55
2022/10/22 13:47:59;;;;;;;6.20;3.92;;;20.70;98.30;;;;;;5011494;28;20033;-57
2022/10/22 13:50:45;;;;;;;4.57;3.50;;;20.50;98.40;;;;;;5014012;28;20517;-55
2022/10/22 13:53:31;;;;;;;7.15;3.75;;;20.40;98.80;;;;;;5010226;28;20038;-56
2022/10/22 13:56:19;;;;;;;6.20;3.92;;;20.30;99.10;;;;;;4995534;28;20041;-55
2022/10/22 13:59:05;;;;;;;6.72;3.95;;;20.30;99.30;;;;;;4996153;28;20105;-57
2022/10/22 14:01:52;;;;;;;6.05;3.75;;;20.10;99.30;;;;;;5010535;28;20030;-55
2022/10/22 14:04:39;;;;;;;7.00;4.00;;;20.20;99.00;;;;;;5010397;28;20108;-57
2022/10/22 14:07:25;;;;;;;7.90;3.97;;;20.30;98.70;;;;;;5010509;28;20053;-54
2022/10/22 14:10:21;;;;;;;5.82;3.85;;;20.30;98.80;;;;;;5010454;28;20040;-54
2022/10/22 14:13:10;;;;;;;6.93;3.67;;;20.40;98.50;;;;;;5003368;28;20057;-56
2022/10/22 14:15:56;;;;;;;6.50;4.10;;;20.10;98.90;;;;;;5007886;28;20034;-52
2022/10/22 14:18:42;;;;;;;10.52;4.93;;;19.80;99.20;;;;;;5009513;28;20045;-55
2022/10/22 14:21:35;;;;;;;9.02;4.30;;;19.40;99.90;;;;;;5009768;28;20034;-51
2022/10/22 14:24:21;;;;;;;7.85;4.25;;;19.10;99.90;;;;;;5009379;28;20041;-54
2022/10/22 14:27:13;;;;;;;4.47;3.95;;;18.80;99.90;;;;;;4998843;28;20443;-56
2022/10/22 14:29:59;;;;;;;7.53;4.47;;;19.30;99.90;;;;;;5009870;28;20034;-57
2022/10/22 14:32:47;;;;;;;6.95;4.30;;;19.60;99.90;;;;;;4991107;28;20060;-60
2022/10/22 14:35:33;;;;;;;7.13;3.90;;;20.60;98.90;;;;;;4995816;28;20162;-54
2022/10/22 14:38:19;;;;;;;7.82;4.00;;;21.40;97.40;;;;;;5010887;28;20038;-54
2022/10/22 14:41:17;;;;;;;5.10;3.40;;;22.60;95.70;;;;;;5005184;28;20117;-50